Time;durP1;ratioP1;P1;durP2;ratioP2;P2;SDS_P1;SDS_P2;PMS_P1;PMS_P2;Temp;Humidity;BMP_temperature;BMP_pressure;BME280_temperature;BME280_humidity;BME280_pressure;Samples;Min_cycle;Max_cycle;Signal;HPM_P1;HPM_P2
2021/07/24 00:01:34;;;;;;;;;;;;;;;22.69;55.26;100860.88;5023929;28;1699;-40
2021/07/24 00:04:01;;;;;;;;;;;;;;;22.69;55.06;100852.78;5019684;28;1662;-40
2021/07/24 00:06:31;;;;;;;;;;;;;;;22.75;55.43;100847.59;5023415;28;1894;-41
2021/07/24 00:09:04;;;;;;;;;;;;;;;22.72;55.19;100860.56;5031181;28;1908;-40
2021/07/24 00:11:34;;;;;;;;;;;;;;;22.73;55.54;100859.56;5026652;28;1564;-40
2021/07/24 00:14:03;;;;;;;;;;;;;;;22.75;55.42;100860.25;5027506;28;1473;-40
2021/07/24 00:16:31;;;;;;;;;;;;;;;22.67;55.51;100854.81;5028937;28;1763;-41
2021/07/24 00:18:59;;;;;;;;;;;;;;;22.78;55.41;100841.03;5016319;28;1081;-40
2021/07/24 00:21:29;;;;;;;;;;;;;;;22.78;55.21;100852.69;5030825;28;1807;-40
2021/07/24 00:23:55;;;;;;;;;;;;;;;22.61;55.46;100843.63;5017709;28;1592;-40
2021/07/24 00:26:22;;;;;;;;;;;;;;;22.55;55.83;100855.03;5014378;28;1754;-41
2021/07/24 00:28:51;;;;;;;;;;;;;;;22.45;55.84;100848.91;5025669;28;1695;-41
2021/07/24 00:31:27;;;;;;;;;;;;;;;22.45;56.22;100859.69;5025009;28;1902;-40
2021/07/24 00:33:54;;;;;;;;;;;;;;;22.26;56.47;100854.47;5032448;28;1583;-40
2021/07/24 00:36:29;;;;;;;;;;;;;;;22.17;56.94;100867.84;5026081;28;1849;-40
2021/07/24 00:38:58;;;;;;;;;;;;;;;22.01;56.73;100873.06;5018120;28;1784;-40
2021/07/24 00:41:31;;;;;;;;;;;;;;;22.08;57.21;100866.06;5028590;28;1728;-40
2021/07/24 00:44:01;;;;;;;;;;;;;;;22.12;56.79;100870.13;5029735;28;1968;-40
2021/07/24 00:46:30;;;;;;;;;;;;;;;22.21;56.16;100871.06;5029687;28;1801;-41
2021/07/24 00:49:03;;;;;;;;;;;;;;;22.45;56.08;100862.38;5019534;28;1044;-39
2021/07/24 00:51:37;;;;;;;;;;;;;;;22.53;55.57;100867.00;5030116;28;1643;-40
2021/07/24 00:54:05;;;;;;;;;;;;;;;22.63;55.33;100856.97;5025070;28;1523;-40
2021/07/24 00:56:31;;;;;;;;;;;;;;;22.64;55.54;100861.34;5031254;28;1795;-40
2021/07/24 00:58:58;;;;;;;;;;;;;;;22.59;55.84;100856.41;5014212;28;1916;-40
2021/07/24 01:01:29;;;;;;;;;;;;;;;22.63;55.34;100859.66;5030513;28;1501;-40
2021/07/24 01:03:59;;;;;;;;;;;;;;;22.60;56.13;100858.13;5032340;28;1773;-40
2021/07/24 01:06:28;;;;;;;;;;;;;;;22.66;55.56;100855.78;5027235;28;2209;-39
2021/07/24 01:11:40;;;;;;;;;;;;;;;22.78;55.33;100838.34;5031403;28;1734;-41
2021/07/24 01:14:08;;;;;;;;;;;;;;;22.77;55.22;100842.06;5018854;28;1744;-40
2021/07/24 01:16:36;;;;;;;;;;;;;;;22.64;55.45;100846.03;5031750;28;1698;-40
2021/07/24 01:19:03;;;;;;;;;;;;;;;22.50;55.41;100846.59;5028251;28;1147;-40
2021/07/24 01:21:32;;;;;;;;;;;;;;;22.47;55.85;100840.69;5032585;28;1932;-40
2021/07/24 01:23:58;;;;;;;;;;;;;;;22.51;55.73;100832.13;5034861;28;1953;-40
2021/07/24 01:26:48;;;;;;;;;;;;;;;22.46;55.89;100839.81;5018261;28;1756;-40
2021/07/24 01:29:15;;;;;;;;;;;;;;;22.47;55.59;100840.69;5032498;28;1997;-40
2021/07/24 01:31:43;;;;;;;;;;;;;;;22.51;55.70;100825.88;5022512;28;1659;-40
2021/07/24 01:34:20;;;;;;;;;;;;;;;22.45;55.88;100830.06;5030817;28;1603;-40
2021/07/24 01:36:51;;;;;;;;;;;;;;;22.40;55.43;100845.81;5024794;28;1759;-40
2021/07/24 01:39:18;;;;;;;;;;;;;;;22.43;55.94;100837.44;5035274;28;1572;-40
2021/07/24 01:41:48;;;;;;;;;;;;;;;22.43;55.57;100837.44;5035143;28;1930;-40
2021/07/24 01:44:18;;;;;;;;;;;;;;;22.46;55.60;100839.81;5026474;28;1812;-40
2021/07/24 01:46:47;;;;;;;;;;;;;;;22.55;55.21;100840.75;5017866;28;1711;-40
2021/07/24 01:52:46;;;;;;;;;;;;;;;22.55;55.45;100835.34;5035236;28;1978;-40
2021/07/24 01:55:13;;;;;;;;;;;;;;;22.61;54.86;100857.13;5026602;28;1642;-40
2021/07/24 01:57:45;;;;;;;;;;;;;;;22.51;55.02;100826.72;5024215;28;2000;-40
2021/07/24 02:02:54;;;;;;;;;;;;;;;21.95;56.58;100842.22;5087627;23;1684;-82
2021/07/24 02:05:29;;;;;;;;;;;;;;;21.79;56.40;100829.44;5079164;28;1446;-81
2021/07/24 02:08:04;;;;;;;;;;;;;;;21.78;57.28;100825.03;5079744;28;1482;-83
2021/07/24 02:10:42;;;;;;;;;;;;;;;21.67;56.57;100827.13;5075563;28;1977;-82
2021/07/24 02:13:10;;;;;;;;;;;;;;;21.77;56.53;100838.66;5075880;28;1603;-82
2021/07/24 02:15:41;;;;;;;;;;;;;;;21.71;56.71;100850.88;5062072;28;1500;-82
2021/07/24 02:18:15;;;;;;;;;;;;;;;21.73;56.79;100848.03;5071250;28;1630;-81
2021/07/24 02:20:45;;;;;;;;;;;;;;;21.86;56.92;100837.72;5078404;28;1839;-81
2021/07/24 02:23:17;;;;;;;;;;;;;;;21.94;57.01;100850.44;5069130;28;1431;-80
2021/07/24 02:25:44;;;;;;;;;;;;;;;21.83;57.15;100838.88;5080489;28;979;-83
2021/07/24 02:28:12;;;;;;;;;;;;;;;21.93;56.35;100838.81;5077905;28;1731;-83
2021/07/24 02:30:40;;;;;;;;;;;;;;;22.12;55.56;100810.03;5073196;28;1898;-82
2021/07/24 02:33:07;;;;;;;;;;;;;;;22.23;55.67;100845.66;5073369;28;1616;-82
2021/07/24 02:35:40;;;;;;;;;;;;;;;22.30;55.34;100837.00;5080767;28;1607;-80
2021/07/24 02:38:07;;;;;;;;;;;;;;;22.40;55.46;100832.34;5077948;28;1852;-81
2021/07/24 02:40:41;;;;;;;;;;;;;;;22.37;55.19;100819.22;5066929;28;1065;-81
2021/07/24 02:43:08;;;;;;;;;;;;;;;22.41;54.86;100842.16;5073789;28;1727;-81
2021/07/24 02:45:34;;;;;;;;;;;;;;;22.38;54.97;100837.06;5073426;28;1645;-82
2021/07/24 02:48:04;;;;;;;;;;;;;;;22.37;55.01;100840.75;5075288;28;1635;-81
2021/07/24 02:50:31;;;;;;;;;;;;;;;22.29;55.49;100841.53;5087718;28;1882;-80
2021/07/24 02:53:01;;;;;;;;;;;;;;;22.27;54.97;100853.47;5074835;28;1590;-82
2021/07/24 02:55:34;;;;;;;;;;;;;;;22.33;55.13;100850.16;5078345;28;987;-81
2021/07/24 02:58:02;;;;;;;;;;;;;;;22.39;55.30;100844.16;5078895;28;1152;-80
2021/07/24 03:00:31;;;;;;;;;;;;;;;22.42;54.77;100854.59;5076116;28;1501;-82
2021/07/24 03:02:58;;;;;;;;;;;;;;;22.29;54.89;100846.09;5076465;28;1549;-82
2021/07/24 03:05:30;;;;;;;;;;;;;;;22.29;54.69;100855.00;5070362;28;1855;-81
2021/07/24 03:08:03;;;;;;;;;;;;;;;22.27;55.38;100845.41;5077994;28;1755;-81
2021/07/24 03:10:42;;;;;;;;;;;;;;;22.24;55.38;100858.19;5074678;28;1975;-81
2021/07/24 03:13:11;;;;;;;;;;;;;;;22.22;54.95;100841.28;5074799;28;1513;-82
2021/07/24 03:15:39;;;;;;;;;;;;;;;22.29;55.34;100855.00;5068867;28;1476;-82
2021/07/24 03:18:06;;;;;;;;;;;;;;;22.36;54.95;100848.00;5068414;28;1481;-80
2021/07/24 03:20:42;;;;;;;;;;;;;;;22.35;55.08;100845.47;5075774;28;1469;-82
2021/07/24 03:23:08;;;;;;;;;;;;;;;22.20;55.30;100851.38;5073889;28;1446;-81
2021/07/24 03:25:40;;;;;;;;;;;;;;;22.12;55.40;100859.34;5081011;28;1401;-80
2021/07/24 03:28:08;;;;;;;;;;;;;;;22.12;55.49;100853.97;5081777;28;1775;-80
2021/07/24 03:30:39;;;;;;;;;;;;;;;22.19;55.17;100860.44;5070884;28;1944;-81
2021/07/24 03:33:11;;;;;;;;;;;;;;;22.22;54.78;100849.38;5078140;28;1561;-81
2021/07/24 03:35:44;;;;;;;;;;;;;;;22.29;55.13;100856.88;5071311;28;1603;-84
2021/07/24 03:38:10;;;;;;;;;;;;;;;22.45;54.48;100865.06;5073875;28;1494;-83
2021/07/24 03:40:38;;;;;;;;;;;;;;;22.47;55.22;100856.84;5077224;28;1341;-83
2021/07/24 03:43:05;;;;;;;;;;;;;;;22.44;55.14;100861.53;5067771;28;1503;-83
2021/07/24 03:45:40;;;;;;;;;;;;;;;22.45;55.03;100859.69;5078409;28;1557;-81
2021/07/24 03:48:15;;;;;;;;;;;;;;;22.52;55.28;100860.78;5070693;28;1569;-82
2021/07/24 03:50:42;;;;;;;;;;;;;;;22.36;55.13;100856.09;5070683;28;1910;-81
2021/07/24 03:53:09;;;;;;;;;;;;;;;22.24;55.54;100866.25;5080850;28;1473;-82
2021/07/24 03:55:39;;;;;;;;;;;;;;;22.14;55.93;100868.13;5081790;28;1284;-82
2021/07/24 03:58:07;;;;;;;;;;;;;;;22.13;56.30;100866.44;5077744;28;1632;-82
2021/07/24 04:00:39;;;;;;;;;;;;;;;22.30;56.09;100872.00;5078230;28;1225;-84
2021/07/24 04:03:18;;;;;;;;;;;;;;;22.44;55.78;100868.75;5078450;28;1457;-81
2021/07/24 04:05:52;;;;;;;;;;;;;;;22.56;55.52;100875.63;5072565;28;1566;-82
2021/07/24 04:08:20;;;;;;;;;;;;;;;22.55;54.93;100868.53;5064320;28;1588;-83
2021/07/24 04:10:48;;;;;;;;;;;;;;;22.49;54.70;100871.84;5080029;28;1969;-79
2021/07/24 04:13:21;;;;;;;;;;;;;;;22.53;55.18;100873.22;5079535;28;1840;-81
2021/07/24 04:15:48;;;;;;;;;;;;;;;22.39;55.10;100874.63;5080701;28;1405;-81
2021/07/24 04:18:23;;;;;;;;;;;;;;;22.40;54.52;100899.72;5079831;28;1743;-81
2021/07/24 04:20:49;;;;;;;;;;;;;;;22.43;54.53;100888.63;5077062;28;1577;-82
2021/07/24 04:23:31;;;;;;;;;;;;;;;22.51;54.77;100883.31;5067796;28;1496;-82
2021/07/24 04:25:57;;;;;;;;;;;;;;;22.55;54.47;100882.00;5081887;28;1684;-81
2021/07/24 04:28:24;;;;;;;;;;;;;;;22.61;54.60;100896.72;5060813;28;1930;-81
2021/07/24 04:30:51;;;;;;;;;;;;;;;22.72;54.80;100895.59;5077063;28;1975;-83
2021/07/24 04:33:22;;;;;;;;;;;;;;;22.73;54.50;100894.59;5078717;28;1600;-81
2021/07/24 04:35:53;;;;;;;;;;;;;;;22.73;54.79;100883.81;5069947;28;1679;-84
2021/07/24 04:38:22;;;;;;;;;;;;;;;22.82;54.86;100882.88;5071904;28;1544;-82
2021/07/24 04:40:51;;;;;;;;;;;;;;;22.76;55.15;100887.06;5079564;28;1042;-81
2021/07/24 04:43:19;;;;;;;;;;;;;;;22.85;55.36;100901.44;5076902;28;1747;-80
2021/07/24 04:45:47;;;;;;;;;;;;;;;22.84;54.91;100886.28;5074425;28;1715;-81
2021/07/24 04:48:15;;;;;;;;;;;;;;;22.84;55.51;100876.31;5074393;28;1556;-83
2021/07/24 04:50:54;;;;;;;;;;;;;;;22.78;55.41;100886.88;5071532;28;1906;-82
2021/07/24 04:53:21;;;;;;;;;;;;;;;22.68;55.09;100896.91;5077333;28;1492;-80
2021/07/24 04:55:48;;;;;;;;;;;;;;;22.72;54.94;100891.06;5081698;28;1294;-80
2021/07/24 04:58:15;;;;;;;;;;;;;;;22.29;56.39;100844.22;5082262;28;1720;-79
2021/07/24 05:00:43;;;;;;;;;;;;;;;22.66;55.69;100893.53;5073003;28;1152;-79
2021/07/24 05:03:18;;;;;;;;;;;;;;;22.62;56.03;100891.16;5071271;28;1585;-82
2021/07/24 05:05:53;;;;;;;;;;;;;;;22.73;55.33;100897.31;5074093;28;1409;-81
2021/07/24 05:08:23;;;;;;;;;;;;;;;22.78;55.32;100886.88;5078482;28;1338;-81
2021/07/24 05:10:50;;;;;;;;;;;;;;;22.72;55.80;100899.16;5073306;28;1917;-81
2021/07/24 05:13:17;;;;;;;;;;;;;;;22.88;55.34;100903.81;5077408;28;1573;-82
2021/07/24 05:15:45;;;;;;;;;;;;;;;22.99;55.44;100895.47;5076335;28;1508;-80
2021/07/24 05:18:12;;;;;;;;;;;;;;;22.99;55.51;100895.47;5077334;28;1525;-80
2021/07/24 05:20:41;;;;;;;;;;;;;;;22.96;55.51;100895.78;5077858;28;1214;-81
2021/07/24 05:23:09;;;;;;;;;;;;;;;23.02;55.47;100905.97;5079728;28;1394;-80
2021/07/24 05:25:37;;;;;;;;;;;;;;;22.90;55.73;100906.34;5081783;28;1324;-80
2021/07/24 05:28:04;;;;;;;;;;;;;;;22.78;56.00;100903.06;5080424;28;1324;-78
2021/07/24 05:30:36;;;;;;;;;;;;;;;22.81;55.60;100902.75;5073903;28;1910;-81
2021/07/24 05:33:03;;;;;;;;;;;;;;;22.98;55.35;100906.44;5073383;28;1557;-79
2021/07/24 05:35:30;;;;;;;;;;;;;;;23.12;54.77;100905.88;5077597;28;1500;-80
2021/07/24 05:37:56;;;;;;;;;;;;;;;23.18;54.68;100901.69;5080846;28;1597;-81
2021/07/24 05:40:24;;;;;;;;;;;;;;;23.23;55.21;100891.25;5079888;28;1489;-79
2021/07/24 05:42:58;;;;;;;;;;;;;;;23.40;54.86;100898.44;5076147;28;1331;-80
2021/07/24 05:45:25;;;;;;;;;;;;;;;23.45;54.55;100915.97;5075579;28;1526;-80
2021/07/24 05:47:53;;;;;;;;;;;;;;;23.47;54.97;100895.91;5074584;28;1475;-79
2021/07/24 05:50:22;;;;;;;;;;;;;;;23.58;54.80;100905.59;5074644;28;1483;-81
2021/07/24 05:52:50;;;;;;;;;;;;;;;23.51;55.42;100899.13;5078446;28;1989;-81
2021/07/24 05:55:22;;;;;;;;;;;;;;;23.56;54.94;100916.53;5078855;28;1329;-81
2021/07/24 05:57:49;;;;;;;;;;;;;;;23.63;55.04;100897.84;5089090;28;1535;-81
2021/07/24 06:00:20;;;;;;;;;;;;;;;23.72;53.61;100913.06;5087823;28;1783;-80
2021/07/24 06:02:48;;;;;;;;;;;;;;;23.76;54.74;100895.53;5079828;28;1493;-82
2021/07/24 06:05:15;;;;;;;;;;;;;;;23.79;54.93;100900.63;5067751;28;1583;-82
2021/07/24 06:07:43;;;;;;;;;;;;;;;23.80;54.98;100905.03;5070687;28;1779;-82
2021/07/24 06:10:10;;;;;;;;;;;;;;;23.81;55.51;100909.44;5080756;28;1682;-80
2021/07/24 06:12:37;;;;;;;;;;;;;;;23.82;55.27;100899.47;5082897;28;1882;-80
2021/07/24 06:15:04;;;;;;;;;;;;;;;23.89;55.07;100905.03;5076658;28;1461;-80
2021/07/24 06:17:31;;;;;;;;;;;;;;;24.02;54.81;100908.97;5069329;28;1486;-80
2021/07/24 06:19:59;;;;;;;;;;;;;;;23.93;55.07;100899.13;5079362;28;1497;-80
2021/07/24 06:22:27;;;;;;;;;;;;;;;23.98;54.86;100901.38;5071204;28;1418;-79
2021/07/24 06:24:55;;;;;;;;;;;;;;;23.98;55.89;100904.91;5079771;28;1238;-80
2021/07/24 06:27:24;;;;;;;;;;;;;;;24.02;55.69;100913.53;5067823;28;1502;-79
2021/07/24 06:29:52;;;;;;;;;;;;;;;24.00;55.63;100904.75;5075932;28;1581;-79
2021/07/24 06:32:19;;;;;;;;;;;;;;;24.02;55.83;100892.75;5075971;28;1906;-80
2021/07/24 06:34:49;;;;;;;;;;;;;;;24.09;55.67;100902.91;5074996;28;1634;-81
2021/07/24 06:37:18;;;;;;;;;;;;;;;24.16;55.06;100902.06;5078863;28;1491;-80
2021/07/24 06:39:44;;;;;;;;;;;;;;;24.22;55.68;100901.41;5060811;28;1720;-79
2021/07/24 06:42:12;;;;;;;;;;;;;;;24.17;55.85;100905.59;5064706;28;1692;-78
2021/07/24 06:44:39;;;;;;;;;;;;;;;24.15;55.98;100903.09;5074515;28;1462;-79
2021/07/24 06:47:07;;;;;;;;;;;;;;;24.10;56.03;100902.75;5075235;28;1534;-78
2021/07/24 06:49:33;;;;;;;;;;;;;;;23.97;55.93;100908.63;5076168;28;1544;-81
2021/07/24 06:52:06;;;;;;;;;;;;;;;23.93;56.08;100903.69;5077559;28;2008;-81
2021/07/24 06:54:35;;;;;;;;;;;;;;;23.99;55.92;100908.44;5075924;28;1421;-79
2021/07/24 06:57:09;;;;;;;;;;;;;;;24.12;55.02;100902.56;5074482;28;1513;-79
2021/07/24 06:59:35;;;;;;;;;;;;;;;24.12;55.98;100898.00;5074876;28;1555;-78
2021/07/24 07:02:02;;;;;;;;;;;;;;;24.15;56.04;100907.63;5076069;28;1430;-79
2021/07/24 07:04:37;;;;;;;;;;;;;;;24.11;55.90;100896.31;5078538;28;1472;-81
2021/07/24 07:07:05;;;;;;;;;;;;;;;24.09;55.87;100901.03;5073614;28;1511;-79
2021/07/24 07:09:33;;;;;;;;;;;;;;;24.07;55.96;100894.94;5075014;28;1571;-79
2021/07/24 07:12:01;;;;;;;;;;;;;;;24.08;55.49;100903.91;5076251;28;1901;-80
2021/07/24 07:14:28;;;;;;;;;;;;;;;24.01;55.28;100903.72;5076798;28;1469;-79
2021/07/24 07:17:01;;;;;;;;;;;;;;;24.00;55.42;100900.19;5077604;28;1526;-79
2021/07/24 07:19:39;;;;;;;;;;;;;;;24.08;55.41;100906.63;5075979;28;1469;-81
2021/07/24 07:22:06;;;;;;;;;;;;;;;24.14;55.09;100890.59;5078389;28;1611;-79
2021/07/24 07:24:32;;;;;;;;;;;;;;;24.15;54.70;100903.09;5078606;28;1349;-81
2021/07/24 07:27:01;;;;;;;;;;;;;;;24.16;54.94;100898.53;5075092;28;1575;-80
2021/07/24 07:29:29;;;;;;;;;;;;;;;24.23;55.14;100904.94;5070611;28;1474;-80
2021/07/24 07:31:56;;;;;;;;;;;;;;;24.29;54.89;100906.13;5088488;28;1882;-79
2021/07/24 07:34:22;;;;;;;;;;;;;;;24.35;54.58;100902.75;5072187;28;1558;-80
2021/07/24 07:36:51;;;;;;;;;;;;;;;24.38;54.05;100891.63;5072609;28;1278;-79
2021/07/24 07:39:18;;;;;;;;;;;;;;;24.41;53.56;100894.84;5069605;28;1497;-81
2021/07/24 07:41:45;;;;;;;;;;;;;;;24.52;53.57;100899.09;5077509;28;1435;-79
2021/07/24 07:44:13;;;;;;;;;;;;;;;24.54;53.69;100899.75;5073197;28;1461;-79
2021/07/24 07:46:39;;;;;;;;;;;;;;;24.55;53.99;100904.16;5070008;28;1522;-80
2021/07/24 07:49:06;;;;;;;;;;;;;;;24.54;54.12;100902.47;5076346;28;1572;-79
2021/07/24 07:51:33;;;;;;;;;;;;;;;24.55;54.34;100908.72;5069259;28;1953;-79
2021/07/24 07:53:59;;;;;;;;;;;;;;;24.53;54.28;100911.59;5074859;28;1727;-79
2021/07/24 07:56:26;;;;;;;;;;;;;;;24.56;54.43;100891.50;5073752;28;1552;-80
2021/07/24 07:58:54;;;;;;;;;;;;;;;24.65;55.31;100898.59;5063082;28;1439;-78
2021/07/24 08:01:27;;;;;;;;;;;;;;;24.64;55.04;100909.56;5066921;28;1558;-79
2021/07/24 08:03:54;;;;;;;;;;;;;;;24.58;56.19;100901.13;5061005;28;1477;-78
2021/07/24 08:06:21;;;;;;;;;;;;;;;24.53;56.50;100911.59;5075860;28;1471;-79
2021/07/24 08:08:47;;;;;;;;;;;;;;;24.57;57.67;100914.78;5068955;28;1409;-78
2021/07/24 08:11:14;;;;;;;;;;;;;;;24.53;56.44;100903.50;5079075;28;1739;-77
2021/07/24 08:13:43;;;;;;;;;;;;;;;24.59;57.37;100910.94;5066342;28;1973;-79
2021/07/24 08:16:13;;;;;;;;;;;;;;;24.56;57.21;100903.13;5071898;28;1375;-80
2021/07/24 08:18:43;;;;;;;;;;;;;;;24.64;55.64;100913.13;5062881;28;1774;-80
2021/07/24 08:21:10;;;;;;;;;;;;;;;24.61;56.07;100910.72;5079067;28;1309;-79
2021/07/24 08:23:38;;;;;;;;;;;;;;;24.60;56.46;100895.53;5083387;28;1478;-80
2021/07/24 08:26:05;;;;;;;;;;;;;;;24.59;57.64;100905.53;5073041;28;1064;-84
2021/07/24 08:28:34;;;;;;;;;;;;;;;24.54;57.81;100897.06;5073388;28;1310;-80
2021/07/24 08:31:06;;;;;;;;;;;;;;;24.49;58.35;100894.00;5077292;28;1700;-80
2021/07/24 08:33:32;;;;;;;;;;;;;;;24.48;58.63;100886.91;5080825;28;1925;-79
2021/07/24 08:36:00;;;;;;;;;;;;;;;24.45;58.11;100881.81;5070229;28;1623;-80
2021/07/24 08:38:27;;;;;;;;;;;;;;;24.44;58.17;100874.72;5066792;28;1581;-83
2021/07/24 08:40:53;;;;;;;;;;;;;;;24.46;58.81;100893.50;5074548;28;1502;-79
2021/07/24 08:43:20;;;;;;;;;;;;;;;24.40;58.75;100886.91;5079018;28;1689;-79
2021/07/24 08:45:48;;;;;;;;;;;;;;;24.37;58.79;100896.19;5071488;28;1715;-80
2021/07/24 08:48:15;;;;;;;;;;;;;;;24.36;58.91;100891.78;5074956;28;1614;-80
2021/07/24 08:50:49;;;;;;;;;;;;;;;24.37;58.77;100881.81;5082183;28;1806;-83
2021/07/24 08:53:23;;;;;;;;;;;;;;;24.37;58.54;100895.31;5071022;28;1974;-80
2021/07/24 08:55:50;;;;;;;;;;;;;;;24.38;58.61;100895.16;5076927;28;1027;-79
2021/07/24 08:58:36;;;;;;;;;;;;;;;24.37;58.64;100881.81;5058535;28;1728;-79
2021/07/24 09:01:03;;;;;;;;;;;;;;;24.35;58.52;100886.53;5077396;28;1848;-79
2021/07/24 09:03:32;;;;;;;;;;;;;;;24.38;58.46;100897.03;5087038;28;1683;-80
2021/07/24 09:06:00;;;;;;;;;;;;;;;24.35;58.51;100886.53;5061591;28;1632;-79
2021/07/24 09:08:28;;;;;;;;;;;;;;;24.34;59.13;100890.28;5073158;28;1616;-80
2021/07/24 09:10:57;;;;;;;;;;;;;;;24.35;59.42;100891.94;5081399;28;1532;-78
2021/07/24 09:13:24;;;;;;;;;;;;;;;24.36;59.24;100888.25;5070826;28;1898;-79
2021/07/24 09:15:50;;;;;;;;;;;;;;;24.37;59.32;100901.59;5077163;28;1716;-79
2021/07/24 09:18:17;;;;;;;;;;;;;;;24.35;59.57;100891.94;5066174;28;1653;-79
2021/07/24 09:20:47;;;;;;;;;;;;;;;24.32;58.94;100871.50;5075005;28;1549;-79
2021/07/24 09:23:30;;;;;;;;;;;;;;;24.37;58.90;100887.22;5068834;28;1555;-80
2021/07/24 09:25:57;;;;;;;;;;;;;;;24.31;59.38;100886.06;5060874;28;983;-80
2021/07/24 09:28:24;;;;;;;;;;;;;;;24.35;58.78;100891.94;5078606;28;1521;-78
2021/07/24 09:30:52;;;;;;;;;;;;;;;24.33;59.11;100870.53;5066471;28;1715;-80
2021/07/24 09:33:20;;;;;;;;;;;;;;;24.37;59.24;100889.91;5079323;28;1882;-79
2021/07/24 09:35:51;;;;;;;;;;;;;;;24.32;59.50;100890.44;5071513;28;1584;-80
2021/07/24 09:38:26;;;;;;;;;;;;;;;24.36;59.44;100874.72;5065427;28;1922;-80
2021/07/24 09:40:57;;;;;;;;;;;;;;;24.32;59.33;100876.09;5082204;28;1497;-80
2021/07/24 09:43:30;;;;;;;;;;;;;;;24.31;59.62;100871.69;5077032;28;1732;-80
2021/07/24 09:46:13;;;;;;;;;;;;;;;24.30;59.32;100861.91;5073897;28;2027;-79
2021/07/24 09:48:40;;;;;;;;;;;;;;;24.33;59.75;100877.75;5078615;28;1580;-79
2021/07/24 09:51:06;;;;;;;;;;;;;;;24.35;58.99;100882.00;5081543;28;1722;-79
2021/07/24 09:53:38;;;;;;;;;;;;;;;24.35;59.21;100881.13;5074253;28;1969;-80
2021/07/24 09:56:06;;;;;;;;;;;;;;;24.30;59.23;100868.13;5083596;28;1070;-79
2021/07/24 09:58:34;;;;;;;;;;;;;;;24.36;59.28;100878.28;5085429;28;1238;-81
2021/07/24 10:01:04;;;;;;;;;;;;;;;24.34;59.58;100880.28;5076415;28;1696;-79
2021/07/24 10:03:31;;;;;;;;;;;;;;;24.35;58.77;100881.13;5082992;28;1644;-80
2021/07/24 10:06:01;;;;;;;;;;;;;;;24.36;58.72;100872.03;5085814;28;1823;-81
2021/07/24 10:08:30;;;;;;;;;;;;;;;24.35;59.08;100873.91;5081251;28;1759;-81
2021/07/24 10:10:57;;;;;;;;;;;;;;;24.37;59.21;100873.69;5079584;28;1305;-80
2021/07/24 10:13:25;;;;;;;;;;;;;;;24.34;59.53;100868.66;5085062;28;1909;-84
2021/07/24 10:15:52;;;;;;;;;;;;;;;24.31;58.92;100872.53;5062299;28;1545;-79
2021/07/24 10:18:18;;;;;;;;;;;;;;;24.34;58.87;100863.25;5069774;28;1699;-80
2021/07/24 10:20:47;;;;;;;;;;;;;;;24.31;59.39;100859.03;5083001;28;1580;-80
2021/07/24 10:23:14;;;;;;;;;;;;;;;24.32;59.28;100863.41;5082373;28;1580;-78
2021/07/24 10:25:48;;;;;;;;;;;;;;;24.34;59.29;100860.53;5081171;28;1017;-79
2021/07/24 10:28:23;;;;;;;;;;;;;;;24.36;59.54;100870.16;5064931;28;1595;-79
2021/07/24 10:30:53;;;;;;;;;;;;;;;24.32;59.54;100874.22;5064789;28;1511;-80
2021/07/24 10:33:22;;;;;;;;;;;;;;;24.33;59.59;100856.13;5063399;28;1961;-80
2021/07/24 10:35:49;;;;;;;;;;;;;;;24.32;58.99;100849.06;5089384;28;1771;-79
2021/07/24 10:38:29;;;;;;;;;;;;;;;24.35;59.18;100854.09;5075745;28;1529;-79
2021/07/24 10:40:56;;;;;;;;;;;;;;;24.35;59.24;100865.78;5082800;28;1407;-84
2021/07/24 10:43:55;;;;;;;;;;;;;;;24.33;58.98;100866.94;5080886;28;1735;-80
2021/07/24 10:46:40;;;;;;;;;;;;;;;24.35;59.48;100849.56;5064536;28;1245;-80
2021/07/24 10:49:09;;;;;;;;;;;;;;;24.36;59.17;100853.94;5063044;28;1616;-79
2021/07/24 10:51:53;;;;;;;;;;;;;;;24.34;59.14;100844.31;5082658;28;1023;-79
2021/07/24 10:54:20;;;;;;;;;;;;;;;24.36;58.70;100863.91;5077309;28;1914;-79
2021/07/24 10:56:46;;;;;;;;;;;;;;;24.41;59.57;100864.25;5077559;28;1679;-80
2021/07/24 10:59:20;;;;;;;;;;;;;;;24.37;59.22;100869.16;5074791;28;1451;-79
2021/07/24 11:01:47;;;;;;;;;;;;;;;24.38;59.32;100860.03;5060624;28;1519;-84
2021/07/24 11:04:29;;;;;;;;;;;;;;;24.35;58.86;100848.69;5069008;28;1700;-85
2021/07/24 11:07:19;;;;;;;;;;;;;;;24.33;59.43;100846.19;5065144;28;1700;-81
2021/07/24 11:10:04;;;;;;;;;;;;;;;24.35;59.76;100846.88;5071473;28;1830;-80
2021/07/24 11:12:34;;;;;;;;;;;;;;;24.37;59.32;100847.53;5080728;28;1917;-79
2021/07/24 11:15:02;;;;;;;;;;;;;;;24.37;59.11;100849.38;5076408;28;1643;-80
2021/07/24 11:17:28;;;;;;;;;;;;;;;24.37;59.23;100839.44;5078653;28;1592;-80
2021/07/24 11:20:14;;;;;;;;;;;;;;;24.37;59.68;100841.28;5077754;28;1443;-80
2021/07/24 11:22:56;;;;;;;;;;;;;;;24.36;59.35;100839.59;5063729;28;1771;-80
2021/07/24 11:25:37;;;;;;;;;;;;;;;24.34;59.43;100834.34;5060927;28;1385;-80
2021/07/24 11:28:06;;;;;;;;;;;;;;;24.36;59.36;100834.19;5068625;28;1779;-80
2021/07/24 11:30:32;;;;;;;;;;;;;;;24.37;59.20;100835.88;5076286;28;1612;-80
2021/07/24 11:32:59;;;;;;;;;;;;;;;24.40;59.17;100841.78;5085747;28;1985;-81
2021/07/24 11:35:43;;;;;;;;;;;;;;;24.40;59.62;100846.34;5080198;28;1533;-78
2021/07/24 11:38:26;;;;;;;;;;;;;;;24.40;59.09;100846.34;5068749;28;1859;-79
2021/07/24 11:41:06;;;;;;;;;;;;;;;24.37;59.03;100846.69;5080628;28;1695;-83
2021/07/24 11:43:33;;;;;;;;;;;;;;;24.36;59.56;100835.03;5076526;28;962;-79
2021/07/24 11:46:01;;;;;;;;;;;;;;;24.41;59.64;100835.38;5080136;28;1821;-79
2021/07/24 11:48:28;;;;;;;;;;;;;;;24.38;59.54;100837.56;5066636;28;1510;-79
2021/07/24 11:51:02;;;;;;;;;;;;;;;24.37;59.64;100825.91;5066952;28;1711;-80
2021/07/24 11:53:28;;;;;;;;;;;;;;;24.39;59.36;100833.84;5074982;28;2007;-79
2021/07/24 11:55:55;;;;;;;;;;;;;;;24.38;59.68;100837.56;5083748;28;995;-79
2021/07/24 11:58:21;;;;;;;;;;;;;;;24.42;59.72;100838.91;5079000;28;1707;-79
2021/07/24 12:00:53;;;;;;;;;;;;;;;24.38;59.32;100837.56;5085962;28;1616;-80
2021/07/24 12:03:20;;;;;;;;;;;;;;;24.38;59.47;100842.97;5078907;28;1847;-80
2021/07/24 12:05:48;;;;;;;;;;;;;;;24.36;59.24;100837.72;5065666;28;1703;-79
2021/07/24 12:08:14;;;;;;;;;;;;;;;24.38;59.59;100832.16;5083525;28;1057;-79
2021/07/24 12:10:41;;;;;;;;;;;;;;;24.38;59.74;100838.41;5082085;28;1548;-79
2021/07/24 12:13:23;;;;;;;;;;;;;;;24.38;59.27;100834.88;5065837;28;1910;-85
2021/07/24 12:16:10;;;;;;;;;;;;;;;24.44;59.32;100830.66;5067748;28;1740;-83
2021/07/24 12:18:38;;;;;;;;;;;;;;;24.42;59.20;100836.22;5077498;28;1752;-79
2021/07/24 12:21:10;;;;;;;;;;;;;;;24.39;59.32;100814.91;5081947;28;1806;-79
2021/07/24 12:23:42;;;;;;;;;;;;;;;24.42;59.74;100822.69;5085341;28;1855;-80
2021/07/24 12:26:11;;;;;;;;;;;;;;;24.42;58.90;100828.09;5084564;28;1478;-81
2021/07/24 12:28:38;;;;;;;;;;;;;;;24.38;59.63;100813.25;5080533;28;1618;-79
2021/07/24 12:31:34;;;;;;;;;;;;;;;24.43;58.96;100808.16;5081561;28;1565;-81
2021/07/24 12:34:02;;;;;;;;;;;;;;;24.38;59.34;100791.63;5072118;28;1977;-81
2021/07/24 12:36:30;;;;;;;;;;;;;;;24.42;59.77;100811.88;5083184;28;1596;-80
2021/07/24 12:38:57;;;;;;;;;;;;;;;24.41;59.14;100812.88;5067295;28;1637;-81
2021/07/24 12:41:33;;;;;;;;;;;;;;;24.40;59.04;100816.63;5064472;28;1611;-79
2021/07/24 12:44:07;;;;;;;;;;;;;;;24.41;58.85;100815.59;5073153;28;1446;-80
2021/07/24 12:46:35;;;;;;;;;;;;;;;24.43;59.00;100816.25;5079293;28;1380;-81
2021/07/24 12:49:03;;;;;;;;;;;;;;;24.46;59.20;100812.41;5079780;28;1054;-80
2021/07/24 12:51:38;;;;;;;;;;;;;;;24.42;59.35;100806.47;5063825;28;1643;-79
2021/07/24 12:54:09;;;;;;;;;;;;;;;24.41;59.55;100800.25;5065194;28;1983;-79
2021/07/24 12:56:38;;;;;;;;;;;;;;;24.41;59.23;100811.03;5060032;28;1510;-80
2021/07/24 12:59:05;;;;;;;;;;;;;;;24.44;58.92;100799.03;5057939;28;1481;-79
2021/07/24 13:01:31;;;;;;;;;;;;;;;24.41;59.38;100784.03;5085730;28;1415;-79
2021/07/24 13:04:03;;;;;;;;;;;;;;;24.39;59.58;100783.34;5082348;28;1542;-80
2021/07/24 13:06:30;;;;;;;;;;;;;;;24.41;59.31;100802.06;5075787;28;1622;-79
2021/07/24 13:08:58;;;;;;;;;;;;;;;24.44;59.91;100799.03;5077265;28;1598;-79
2021/07/24 13:11:25;;;;;;;;;;;;;;;24.41;59.59;100793.97;5080651;28;1755;-80